Karachi Weather



Karachi's Current Weather

Temprature 17o mist

mist

Rain: 0 %

Min Temprature17o
Max Temprature17o
Humidity88
Wind Speed1.5 m/h
Sun Rise06:36:35
Sun Set17:54:06
Current Time: 28-Oct-2020 07:20:32
Lat/Lon: 24.91, 67.08




Karachi's Geo Location



Karachi's Weather Forecast

Time Overall Temp Min Temp Max Temp Humidity Wind Speed Rain
28-Oct-2020 (Wed)
08:00:00 clear sky 21.150 21.150 25.510 72 2.88 m/h 0 %
11:00:00 clear sky 27.440 27.440 30.320 43 3.73 m/h 0 %
14:00:00 clear sky 30.390 30.390 31.310 33 5.64 m/h 0 %
17:00:00 clear sky 28.980 28.980 29.080 40 5.13 m/h 0 %
20:00:00 clear sky 25.980 25.980 25.980 61 3.48 m/h 0 %
23:00:00 clear sky 25.310 25.310 25.310 67 4.32 m/h 0 %
29-Oct-2020 (Thu)
02:00:00 clear sky 24.380 24.380 24.380 69 2.74 m/h 0 %
05:00:00 clear sky 23.700 23.700 23.700 70 2.17 m/h 0 %
08:00:00 clear sky 25.550 25.550 25.550 60 0.86 m/h 0 %
11:00:00 clear sky 29.520 29.520 29.520 37 2.75 m/h 0 %
14:00:00 clear sky 31.070 31.070 31.070 29 4.61 m/h 0 %
17:00:00 clear sky 29.250 29.250 29.250 40 4.42 m/h 0 %
20:00:00 clear sky 26.610 26.610 26.610 59 3.88 m/h 0 %
23:00:00 clear sky 25.550 25.550 25.550 63 1.61 m/h 0 %
30-Oct-2020 (Fri)
02:00:00 clear sky 24.670 24.670 24.670 66 1.51 m/h 0 %
05:00:00 clear sky 24.130 24.130 24.130 66 2.36 m/h 0 %
08:00:00 clear sky 25.410 25.410 25.410 56 2.33 m/h 0 %
11:00:00 clear sky 30.370 30.370 30.370 28 0.22 m/h 0 %
14:00:00 clear sky 32.010 32.010 32.010 24 3.93 m/h 0 %
17:00:00 clear sky 29.690 29.690 29.690 37 5.35 m/h 0 %
20:00:00 clear sky 26.800 26.800 26.800 56 3.37 m/h 0 %
23:00:00 clear sky 25.910 25.910 25.910 59 2.22 m/h 0 %
31-Oct-2020 (Sat)
02:00:00 clear sky 25.290 25.290 25.290 62 3.47 m/h 0 %
05:00:00 clear sky 24.450 24.450 24.450 66 4.24 m/h 0 %
08:00:00 clear sky 26.370 26.370 26.370 47 3.28 m/h 0 %
11:00:00 clear sky 31.640 31.640 31.640 24 1.29 m/h 0 %
14:00:00 clear sky 33.010 33.010 33.010 17 2.33 m/h 0 %
17:00:00 clear sky 31.380 31.380 31.380 23 4.82 m/h 0 %
20:00:00 clear sky 28.200 28.200 28.200 36 3.61 m/h 0 %
23:00:00 clear sky 26.900 26.900 26.900 45 3.19 m/h 0 %
01-Nov-2020 (Sun)
02:00:00 clear sky 25.740 25.740 25.740 54 3.68 m/h 0 %
05:00:00 clear sky 24.830 24.830 24.830 47 2.61 m/h 0 %
08:00:00 clear sky 27.000 27.000 27.000 37 2.63 m/h 0 %
11:00:00 clear sky 32.320 32.320 32.320 18 1.53 m/h 0 %
14:00:00 clear sky 33.680 33.680 33.680 13 1.74 m/h 0 %
17:00:00 clear sky 31.860 31.860 31.860 19 5.68 m/h 0 %
20:00:00 clear sky 28.580 28.580 28.580 28 4.35 m/h 0 %
23:00:00 clear sky 26.610 26.610 26.610 38 1.59 m/h 0 %
02-Nov-2020 (Mon)
02:00:00 clear sky 25.580 25.580 25.580 44 2.24 m/h 0 %
05:00:00 clear sky 25.020 25.020 25.020 47 3.09 m/h 0 %

Famous Cities (60)